createdAt,value
2023-04-13T00:01:25.361Z,64.87
2023-04-13T00:04:04.009Z,64.81
2023-04-13T00:06:39.082Z,64.74
2023-04-13T00:09:11.267Z,64.85
2023-04-13T00:11:43.326Z,64.90
2023-04-13T00:14:15.680Z,64.85
2023-04-13T00:16:47.998Z,64.75
2023-04-13T00:19:20.281Z,64.87
2023-04-13T00:21:53.979Z,64.81
2023-04-13T00:24:26.153Z,64.97
2023-04-13T00:26:58.432Z,65.00
2023-04-13T00:29:30.724Z,65.12
2023-04-13T00:32:03.022Z,65.19
2023-04-13T00:34:36.683Z,65.04
2023-04-13T00:37:08.767Z,65.28
2023-04-13T00:39:40.860Z,65.26
2023-04-13T00:42:13.154Z,65.27
2023-04-13T00:44:47.361Z,65.22
2023-04-13T00:47:26.718Z,65.28
2023-04-13T00:50:01.694Z,65.22
2023-04-13T00:52:38.330Z,65.06
2023-04-13T00:55:13.352Z,65.10
2023-04-13T00:57:45.304Z,65.20
2023-04-13T01:00:18.850Z,65.15
2023-04-13T01:02:52.806Z,65.18
2023-04-13T01:05:27.318Z,65.41
2023-04-13T01:08:09.887Z,65.52
2023-04-13T01:10:50.509Z,65.63
2023-04-13T01:13:27.270Z,65.63
2023-04-13T01:16:06.677Z,65.69
2023-04-13T01:18:45.076Z,65.78
2023-04-13T01:21:24.869Z,65.62
2023-04-13T01:24:17.083Z,65.59
2023-04-13T01:26:57.406Z,65.63
2023-04-13T01:29:31.930Z,65.43
2023-04-13T01:32:04.639Z,65.48
2023-04-13T01:34:38.399Z,65.52
2023-04-13T01:37:13.565Z,65.57
2023-04-13T01:42:26.854Z,65.64
2023-04-13T01:45:00.206Z,65.77
2023-04-13T01:47:34.545Z,65.71
2023-04-13T01:50:34.828Z,65.73
2023-04-13T01:53:20.666Z,65.81
2023-04-13T01:55:53.322Z,65.98
2023-04-13T01:58:33.713Z,65.91
2023-04-13T02:01:11.089Z,65.88
2023-04-13T02:03:43.714Z,65.73
2023-04-13T02:06:16.104Z,65.90
2023-04-13T02:08:50.501Z,65.99
2023-04-13T02:11:28.568Z,65.95
2023-04-13T02:14:00.901Z,65.98
2023-04-13T02:16:33.359Z,66.02
2023-04-13T02:19:05.728Z,66.16
2023-04-13T02:21:38.543Z,66.35
2023-04-13T02:24:11.855Z,66.27
2023-04-13T02:26:44.094Z,66.17
2023-04-13T02:29:16.409Z,66.26
2023-04-13T02:31:50.805Z,66.33
2023-04-13T02:34:23.059Z,66.26
2023-04-13T02:36:55.863Z,66.18
2023-04-13T02:39:28.711Z,66.14
2023-04-13T02:42:02.434Z,66.27
2023-04-13T02:44:35.267Z,66.20
2023-04-13T02:47:08.435Z,66.32
2023-04-13T02:49:41.443Z,66.61
2023-04-13T02:52:23.359Z,66.49
2023-04-13T02:55:16.877Z,66.66
2023-04-13T02:57:54.636Z,66.62
2023-04-13T03:00:28.760Z,66.53
2023-04-13T03:03:04.377Z,66.58
2023-04-13T03:05:40.600Z,66.54
2023-04-13T03:08:14.773Z,66.45
2023-04-13T03:10:57.539Z,66.47
2023-04-13T03:13:31.451Z,66.46
2023-04-13T03:16:04.867Z,66.61
2023-04-13T03:18:37.535Z,66.62
2023-04-13T03:21:10.602Z,66.68
2023-04-13T03:23:51.708Z,66.77
2023-04-13T03:26:25.293Z,66.84
2023-04-13T03:28:58.076Z,66.79
2023-04-13T03:31:31.547Z,66.78
2023-04-13T03:34:03.882Z,66.85
2023-04-13T03:36:36.456Z,66.88
2023-04-13T03:39:08.795Z,66.47
2023-04-13T03:41:42.493Z,66.65
2023-04-13T03:44:14.989Z,66.69
2023-04-13T03:46:47.267Z,66.79
2023-04-13T03:49:27.297Z,66.96
2023-04-13T03:52:00.111Z,67.01
2023-04-13T03:54:32.948Z,66.90
2023-04-13T03:57:05.338Z,66.84
2023-04-13T03:59:38.428Z,67.07
2023-04-13T04:02:11.119Z,67.00
2023-04-13T04:04:45.173Z,66.94
2023-04-13T04:07:23.208Z,67.03
2023-04-13T04:09:55.762Z,67.00
2023-04-13T04:12:28.781Z,66.86
2023-04-13T04:15:00.989Z,66.80
2023-04-13T04:17:34.875Z,66.95
2023-04-13T04:20:10.214Z,67.09
2023-04-13T04:22:44.940Z,67.01
2023-04-13T04:25:22.063Z,67.11
2023-04-13T04:27:57.876Z,67.27
2023-04-13T04:30:33.964Z,67.27
2023-04-13T04:33:07.414Z,67.26
2023-04-13T04:35:50.293Z,67.20
2023-04-13T04:38:24.493Z,67.26
2023-04-13T04:40:57.921Z,67.40
2023-04-13T04:43:32.297Z,67.35
2023-04-13T04:46:05.074Z,67.38
2023-04-13T04:48:39.249Z,67.20
2023-04-13T04:51:11.755Z,67.14
2023-04-13T04:53:44.274Z,67.23
2023-04-13T04:56:16.404Z,67.22
2023-04-13T04:58:52.818Z,67.37
2023-04-13T05:01:27.569Z,67.48
2023-04-13T05:04:08.387Z,67.34
2023-04-13T05:06:44.776Z,67.56
2023-04-13T05:09:20.732Z,67.46
2023-04-13T05:11:56.437Z,67.55
2023-04-13T05:14:28.581Z,67.60
2023-04-13T05:17:01.590Z,67.55
2023-04-13T05:19:38.612Z,67.57
2023-04-13T05:22:23.990Z,67.41
2023-04-13T05:25:01.746Z,67.44
2023-04-13T05:27:38.328Z,67.42
2023-04-13T05:30:12.570Z,67.38
2023-04-13T05:32:45.543Z,67.56
2023-04-13T05:35:17.813Z,67.66
2023-04-13T05:37:50.437Z,67.66
2023-04-13T05:40:29.093Z,67.67
2023-04-13T05:43:03.467Z,67.67
2023-04-13T05:45:38.196Z,67.67
2023-04-13T05:48:17.031Z,67.69
2023-04-13T05:50:50.210Z,67.60
2023-04-13T05:53:23.575Z,67.78
2023-04-13T05:55:59.343Z,67.71
2023-04-13T05:58:31.854Z,67.70
2023-04-13T06:01:24.436Z,67.67
2023-04-13T06:03:58.110Z,67.61
2023-04-13T06:06:30.564Z,67.78
2023-04-13T06:09:05.394Z,67.82
2023-04-13T06:11:37.977Z,68.02
2023-04-13T06:14:10.201Z,67.98
2023-04-13T06:16:42.286Z,67.87
2023-04-13T06:19:14.922Z,67.85
2023-04-13T06:21:47.111Z,67.87
2023-04-13T06:24:19.590Z,67.71
2023-04-13T06:26:52.411Z,67.83
2023-04-13T06:29:24.602Z,67.81
2023-04-13T06:32:04.557Z,67.76
2023-04-13T06:34:36.990Z,67.78
2023-04-13T06:37:09.812Z,67.99
2023-04-13T06:39:50.168Z,67.81
2023-04-13T06:42:22.451Z,67.98
2023-04-13T06:45:09.323Z,67.82
2023-04-13T06:47:44.912Z,67.52
2023-04-13T06:50:18.326Z,67.42
2023-04-13T06:52:51.638Z,67.64
2023-04-13T06:55:25.099Z,67.69
2023-04-13T06:57:57.486Z,67.60
2023-04-13T07:00:30.580Z,67.61
2023-04-13T07:03:04.918Z,67.52
2023-04-13T07:05:38.983Z,67.10
2023-04-13T07:08:16.073Z,67.08
2023-04-13T07:10:53.574Z,66.96
2023-04-13T07:13:32.592Z,66.60
2023-04-13T07:16:05.380Z,66.53
2023-04-13T07:18:39.966Z,66.50
2023-04-13T07:21:12.598Z,66.62
2023-04-13T07:24:04.115Z,66.38
2023-04-13T07:26:36.465Z,66.24
2023-04-13T07:29:13.580Z,66.22
2023-04-13T07:31:48.744Z,66.29
2023-04-13T07:34:22.048Z,65.97
2023-04-13T07:36:54.681Z,65.82
2023-04-13T07:39:27.996Z,65.95
2023-04-13T07:42:00.276Z,65.87
2023-04-13T07:44:39.610Z,65.87
2023-04-13T07:47:14.213Z,65.40
2023-04-13T07:49:47.570Z,65.77
2023-04-13T07:52:22.864Z,65.32
2023-04-13T07:54:56.452Z,64.93
2023-04-13T07:57:32.838Z,65.11
2023-04-13T08:00:06.705Z,65.05
2023-04-13T08:02:46.208Z,65.14
2023-04-13T08:05:22.994Z,64.97
2023-04-13T08:07:55.947Z,63.97
2023-04-13T08:10:28.321Z,63.67
2023-04-13T08:13:01.282Z,63.72
2023-04-13T08:15:33.609Z,64.27
2023-04-13T08:18:06.763Z,63.57
2023-04-13T08:20:39.036Z,63.21
2023-04-13T08:23:12.537Z,63.01
2023-04-13T08:25:45.693Z,63.04
2023-04-13T08:28:20.657Z,63.34
2023-04-13T08:30:52.868Z,63.02
2023-04-13T08:33:25.116Z,62.64
2023-04-13T08:35:57.248Z,62.44
2023-04-13T08:38:29.655Z,62.87
2023-04-13T08:41:03.557Z,61.64
2023-04-13T08:43:37.718Z,61.43
2023-04-13T08:46:11.501Z,61.65
2023-04-13T08:49:05.364Z,61.81
2023-04-13T08:51:47.521Z,61.80
2023-04-13T08:54:19.708Z,61.74
2023-04-13T08:56:52.113Z,61.69
2023-04-13T08:59:29.374Z,61.65
2023-04-13T09:02:06.872Z,61.47
2023-04-13T09:04:46.160Z,61.23
2023-04-13T09:07:26.702Z,60.68
2023-04-13T09:10:01.669Z,60.70
2023-04-13T09:12:34.280Z,60.76
2023-04-13T09:15:09.238Z,60.16
2023-04-13T09:17:48.508Z,60.52
2023-04-13T09:20:23.246Z,60.12
2023-04-13T09:22:55.487Z,60.13
2023-04-13T09:25:29.425Z,59.44
2023-04-13T09:28:02.144Z,59.64
2023-04-13T09:30:35.546Z,59.46
2023-04-13T09:33:10.032Z,59.45
2023-04-13T09:35:42.426Z,59.12
2023-04-13T09:38:16.686Z,59.07
2023-04-13T09:40:54.556Z,59.12
2023-04-13T09:43:37.791Z,59.03
2023-04-13T09:46:15.084Z,58.53
2023-04-13T09:48:47.605Z,58.84
2023-04-13T09:51:20.926Z,58.96
2023-04-13T09:53:53.830Z,58.83
2023-04-13T09:56:27.325Z,58.75
2023-04-13T09:58:59.841Z,58.70
2023-04-13T10:01:32.382Z,58.83
2023-04-13T10:04:07.850Z,58.59
2023-04-13T10:06:43.463Z,58.35
2023-04-13T10:09:16.189Z,58.66
2023-04-13T10:11:51.540Z,57.90
2023-04-13T10:14:27.064Z,57.52
2023-04-13T10:17:25.084Z,57.09
2023-04-13T10:20:00.991Z,57.73
2023-04-13T10:22:33.222Z,57.54
2023-04-13T10:25:09.592Z,57.45
2023-04-13T10:27:44.880Z,57.88
2023-04-13T10:30:19.566Z,57.79
2023-04-13T10:32:50.481Z,57.69
2023-04-13T10:35:22.689Z,58.07
2023-04-13T10:38:00.741Z,57.75
2023-04-13T10:40:42.712Z,57.50
2023-04-13T10:43:25.498Z,57.27
2023-04-13T10:46:09.296Z,57.53
2023-04-13T10:48:43.538Z,57.55
2023-04-13T10:51:15.818Z,57.41
2023-04-13T10:53:49.798Z,57.07
2023-04-13T10:56:22.000Z,56.86
2023-04-13T10:58:57.093Z,57.12
2023-04-13T11:01:30.833Z,57.18
2023-04-13T11:04:09.873Z,56.41
2023-04-13T11:06:44.731Z,56.15
2023-04-13T11:09:17.325Z,55.75
2023-04-13T11:11:54.137Z,55.58
2023-04-13T11:14:26.543Z,56.00
2023-04-13T11:16:58.948Z,55.62
2023-04-13T11:19:31.098Z,56.00
2023-04-13T11:22:03.223Z,55.74
2023-04-13T11:24:35.986Z,55.94
2023-04-13T11:27:17.145Z,55.39
2023-04-13T11:29:58.010Z,55.63
2023-04-13T11:32:30.181Z,55.53
2023-04-13T11:35:12.162Z,55.39
2023-04-13T11:37:47.091Z,55.08
2023-04-13T11:40:26.040Z,55.46
2023-04-13T11:43:01.211Z,54.75
2023-04-13T11:45:33.785Z,55.20
2023-04-13T11:48:07.926Z,55.23
2023-04-13T11:50:41.321Z,55.34
2023-04-13T11:53:14.560Z,55.56
2023-04-13T11:55:53.229Z,55.54
2023-04-13T11:58:27.415Z,54.93
2023-04-13T12:01:03.105Z,54.99
2023-04-13T12:03:57.098Z,54.46
2023-04-13T12:06:36.268Z,54.95
2023-04-13T12:09:13.425Z,54.47
2023-04-13T12:12:08.192Z,54.14
2023-04-13T12:15:04.786Z,54.56
2023-04-13T12:17:49.992Z,54.55
2023-04-13T12:20:35.090Z,54.65
2023-04-13T12:23:22.452Z,54.29
2023-04-13T12:26:00.578Z,54.57
2023-04-13T12:28:34.752Z,54.28
2023-04-13T12:31:09.975Z,54.49
2023-04-13T12:33:42.545Z,54.03
2023-04-13T12:36:14.600Z,53.80
2023-04-13T12:38:46.968Z,53.88
2023-04-13T12:41:19.103Z,53.71
2023-04-13T12:43:51.214Z,53.45
2023-04-13T12:46:25.202Z,53.57
2023-04-13T12:48:57.668Z,53.28
2023-04-13T12:51:31.572Z,52.44
2023-04-13T12:54:03.886Z,52.52
2023-04-13T12:56:36.104Z,52.87
2023-04-13T12:59:08.586Z,52.50
2023-04-13T13:01:40.866Z,52.11
2023-04-13T13:04:13.159Z,52.31
2023-04-13T13:06:45.873Z,52.60
2023-04-13T13:09:18.453Z,52.18
2023-04-13T13:11:50.713Z,52.39
2023-04-13T13:14:22.894Z,52.08
2023-04-13T13:16:54.993Z,52.05
2023-04-13T13:19:27.201Z,52.14
2023-04-13T13:21:59.908Z,51.73
2023-04-13T13:24:32.403Z,51.92
2023-04-13T13:29:39.867Z,51.79
2023-04-13T13:32:12.105Z,51.43
2023-04-13T13:34:44.234Z,51.01
2023-04-13T13:37:16.363Z,51.23
2023-04-13T13:39:48.670Z,51.52
2023-04-13T13:42:21.145Z,51.45
2023-04-13T13:44:53.399Z,50.82
2023-04-13T13:47:25.789Z,50.91
2023-04-13T13:49:58.043Z,50.59
2023-04-13T13:52:41.677Z,50.97
2023-04-13T13:55:20.553Z,50.80
2023-04-13T13:57:52.727Z,50.95
2023-04-13T14:00:26.013Z,50.82
2023-04-13T14:02:58.334Z,50.73
2023-04-13T14:05:30.564Z,50.74
2023-04-13T14:08:02.713Z,50.79
2023-04-13T14:10:35.999Z,50.61
2023-04-13T14:13:08.174Z,50.84
2023-04-13T14:15:40.429Z,50.69
2023-04-13T14:18:12.725Z,50.69
2023-04-13T14:20:44.965Z,50.66
2023-04-13T14:23:17.213Z,50.32
2023-04-13T14:25:49.636Z,50.38
2023-04-13T14:28:21.878Z,50.49
2023-04-13T14:30:54.066Z,50.60
2023-04-13T14:33:26.540Z,50.52
2023-04-13T14:35:58.756Z,50.55
2023-04-13T14:38:30.885Z,50.50
2023-04-13T14:41:03.065Z,50.44
2023-04-13T14:43:35.243Z,50.19
2023-04-13T14:46:07.676Z,49.96
2023-04-13T14:48:40.016Z,49.99
2023-04-13T14:51:18.553Z,50.14
2023-04-13T14:53:54.258Z,50.26
2023-04-13T14:56:27.801Z,50.27
2023-04-13T14:59:00.488Z,49.85
2023-04-13T15:01:33.117Z,49.87
2023-04-13T15:04:05.752Z,50.03
2023-04-13T15:06:40.246Z,50.06
2023-04-13T15:09:13.110Z,50.12
2023-04-13T15:11:45.752Z,50.00
2023-04-13T15:14:17.907Z,50.01
2023-04-13T15:16:50.012Z,49.97
2023-04-13T15:19:22.201Z,49.99
2023-04-13T15:21:54.352Z,49.88
2023-04-13T15:24:26.563Z,49.68
2023-04-13T15:26:58.870Z,49.69
2023-04-13T15:29:31.084Z,49.68
2023-04-13T15:32:03.305Z,49.60
2023-04-13T15:34:35.800Z,49.45
2023-04-13T15:37:07.982Z,49.47
2023-04-13T15:39:40.271Z,49.53
2023-04-13T15:42:13.085Z,49.74
2023-04-13T15:44:45.588Z,49.81
2023-04-13T15:47:17.820Z,49.69
2023-04-13T15:49:49.932Z,49.55
2023-04-13T15:52:22.279Z,49.32
2023-04-13T15:54:55.236Z,49.34
2023-04-13T15:57:27.401Z,49.24
2023-04-13T15:59:59.444Z,49.24
2023-04-13T16:02:32.393Z,49.10
2023-04-13T16:05:05.088Z,49.35
2023-04-13T16:07:37.282Z,49.40
2023-04-13T16:10:17.503Z,49.50
2023-04-13T16:12:50.169Z,49.45
2023-04-13T16:15:23.018Z,49.55
2023-04-13T16:17:57.111Z,49.47
2023-04-13T16:20:29.923Z,49.37
2023-04-13T16:23:04.994Z,49.34
2023-04-13T16:25:37.689Z,49.39
2023-04-13T16:28:10.854Z,49.36
2023-04-13T16:30:42.970Z,49.40
2023-04-13T16:33:15.164Z,49.26
2023-04-13T16:35:47.421Z,49.40
2023-04-13T16:38:19.653Z,49.34
2023-04-13T16:40:51.842Z,49.40
2023-04-13T16:43:24.026Z,49.53
2023-04-13T16:45:56.096Z,49.52
2023-04-13T16:48:29.484Z,49.69
2023-04-13T16:51:02.764Z,49.68
2023-04-13T16:53:34.959Z,49.67
2023-04-13T16:56:09.089Z,49.74
2023-04-13T16:58:41.388Z,49.81
2023-04-13T17:01:13.663Z,49.67
2023-04-13T17:03:45.883Z,49.81
2023-04-13T17:06:18.107Z,49.80
2023-04-13T17:08:50.602Z,49.88
2023-04-13T17:11:23.651Z,49.92
2023-04-13T17:13:56.108Z,50.09
2023-04-13T17:16:29.636Z,50.15
2023-04-13T17:19:02.309Z,50.16
2023-04-13T17:21:34.920Z,50.27
2023-04-13T17:24:09.204Z,50.29
2023-04-13T17:26:41.644Z,50.40
2023-04-13T17:29:13.873Z,50.43
2023-04-13T17:31:46.162Z,50.53
2023-04-13T17:34:18.522Z,50.66
2023-04-13T17:36:51.877Z,50.71
2023-04-13T17:39:24.591Z,50.76
2023-04-13T17:41:57.114Z,50.85
2023-04-13T17:44:29.226Z,50.91
2023-04-13T17:47:01.455Z,51.04
2023-04-13T17:49:34.428Z,51.01
2023-04-13T17:52:06.606Z,51.13
2023-04-13T17:54:40.629Z,51.15
2023-04-13T17:57:13.360Z,51.23
2023-04-13T17:59:46.820Z,51.30
2023-04-13T18:02:20.340Z,51.31
2023-04-13T18:04:52.770Z,51.57
2023-04-13T18:07:26.424Z,51.54
2023-04-13T18:09:58.581Z,51.66
2023-04-13T18:12:30.745Z,51.60
2023-04-13T18:15:03.241Z,51.88
2023-04-13T18:17:36.792Z,51.76
2023-04-13T18:20:11.244Z,51.95
2023-04-13T18:22:43.456Z,51.93
2023-04-13T18:25:15.829Z,52.08
2023-04-13T18:27:48.153Z,52.12
2023-04-13T18:30:20.426Z,52.19
2023-04-13T18:32:52.793Z,52.37
2023-04-13T18:35:24.894Z,52.44
2023-04-13T18:37:57.660Z,52.62
2023-04-13T18:40:30.219Z,52.55
2023-04-13T18:43:02.756Z,52.78
2023-04-13T18:45:35.006Z,52.80
2023-04-13T18:48:09.929Z,52.79
2023-04-13T18:50:42.244Z,52.86
2023-04-13T18:53:14.376Z,52.95
2023-04-13T18:55:51.268Z,52.89
2023-04-13T18:58:23.686Z,53.02
2023-04-13T19:00:56.273Z,53.14
2023-04-13T19:03:28.782Z,53.19
2023-04-13T19:06:01.277Z,53.29
2023-04-13T19:08:33.599Z,53.53
2023-04-13T19:11:06.057Z,53.47
2023-04-13T19:13:38.582Z,53.63
2023-04-13T19:16:11.334Z,53.80
2023-04-13T19:18:43.617Z,53.84
2023-04-13T19:21:18.518Z,53.85
2023-04-13T19:23:50.815Z,53.99
2023-04-13T19:26:23.128Z,54.18
2023-04-13T19:28:57.604Z,54.22
2023-04-13T19:31:29.972Z,54.25
2023-04-13T19:34:02.666Z,54.32
2023-04-13T19:36:37.312Z,54.34
2023-04-13T19:39:10.258Z,54.34
2023-04-13T19:41:42.898Z,54.55
2023-04-13T19:44:16.992Z,54.66
2023-04-13T19:46:49.752Z,54.68
2023-04-13T19:49:22.190Z,54.75
2023-04-13T19:51:54.643Z,54.87
2023-04-13T19:54:27.314Z,54.89
2023-04-13T19:56:59.869Z,54.94
2023-04-13T19:59:32.461Z,54.98
2023-04-13T20:02:05.225Z,55.06
2023-04-13T20:04:38.902Z,55.10
2023-04-13T20:07:11.526Z,55.19
2023-04-13T20:09:43.872Z,55.18
2023-04-13T20:12:16.759Z,55.21
2023-04-13T20:14:49.607Z,55.33
2023-04-13T20:17:22.030Z,55.44
2023-04-13T20:19:55.507Z,55.35
2023-04-13T20:22:28.341Z,55.41
2023-04-13T20:25:00.833Z,55.47
2023-04-13T20:27:34.380Z,55.42
2023-04-13T20:30:09.487Z,55.51
2023-04-13T20:32:42.023Z,55.54
2023-04-13T20:35:15.193Z,55.61
2023-04-13T20:37:47.663Z,55.54
2023-04-13T20:40:27.024Z,55.64
2023-04-13T20:43:00.114Z,55.59
2023-04-13T20:45:32.839Z,55.72
2023-04-13T20:50:41.804Z,55.75
2023-04-13T20:53:15.118Z,55.82
2023-04-13T20:55:48.268Z,55.77
2023-04-13T20:58:21.231Z,55.82
2023-04-13T21:00:53.819Z,55.94
2023-04-13T21:03:32.011Z,55.94
2023-04-13T21:06:04.784Z,55.99
2023-04-13T21:08:37.238Z,55.96
2023-04-13T21:11:09.661Z,56.02
2023-04-13T21:13:42.115Z,56.13
2023-04-13T21:16:15.152Z,56.12
2023-04-13T21:18:47.866Z,56.22
2023-04-13T21:21:23.372Z,56.17
2023-04-13T21:23:56.344Z,56.22
2023-04-13T21:26:29.080Z,56.24
2023-04-13T21:29:01.611Z,56.34
2023-04-13T21:31:34.150Z,56.44
2023-04-13T21:34:06.616Z,56.43
2023-04-13T21:39:14.588Z,56.52
2023-04-13T21:41:47.190Z,56.51
2023-04-13T21:44:29.249Z,56.54
2023-04-13T21:47:01.943Z,56.64
2023-04-13T21:49:34.297Z,56.79
2023-04-13T21:52:06.606Z,56.90
2023-04-13T21:54:38.986Z,56.88
2023-04-13T21:57:11.371Z,56.92
2023-04-13T21:59:44.290Z,57.01
2023-04-13T22:02:16.833Z,57.10
2023-04-13T22:04:49.256Z,57.14
2023-04-13T22:07:28.602Z,57.09
2023-04-13T22:10:12.773Z,57.19
2023-04-13T22:12:45.074Z,57.19
2023-04-13T22:15:17.501Z,57.27
2023-04-13T22:17:49.856Z,57.35
2023-04-13T22:20:22.197Z,57.39
2023-04-13T22:22:54.472Z,57.35
2023-04-13T22:25:28.105Z,57.44
2023-04-13T22:28:00.421Z,57.61
2023-04-13T22:30:32.944Z,57.58
2023-04-13T22:33:05.385Z,57.61
2023-04-13T22:35:38.451Z,57.78
2023-04-13T22:38:11.299Z,57.69
2023-04-13T22:40:43.631Z,57.90
2023-04-13T22:43:16.353Z,57.87
2023-04-13T22:45:48.723Z,57.95
2023-04-13T22:48:21.408Z,57.94
2023-04-13T22:50:53.945Z,58.04
2023-04-13T22:53:27.251Z,58.03
2023-04-13T22:56:00.914Z,58.17
2023-04-13T22:58:33.433Z,58.17
2023-04-13T23:01:06.124Z,58.27
2023-04-13T23:03:38.606Z,58.29
2023-04-13T23:06:11.308Z,58.32
2023-04-13T23:08:43.592Z,58.37
2023-04-13T23:11:16.080Z,58.56
2023-04-13T23:13:48.460Z,58.62
2023-04-13T23:16:20.832Z,58.66
2023-04-13T23:18:53.299Z,58.68
2023-04-13T23:21:26.559Z,58.65
2023-04-13T23:23:58.957Z,58.70
2023-04-13T23:26:31.313Z,58.89
2023-04-13T23:29:03.817Z,58.92
2023-04-13T23:31:36.416Z,58.81
2023-04-13T23:34:08.756Z,58.99
2023-04-13T23:36:41.349Z,59.02
2023-04-13T23:39:13.679Z,59.16
2023-04-13T23:41:46.081Z,59.14
2023-04-13T23:44:18.411Z,59.18
2023-04-13T23:46:50.870Z,59.25
2023-04-13T23:49:23.867Z,59.42
2023-04-13T23:51:56.281Z,59.33
2023-04-13T23:54:28.674Z,59.42
2023-04-13T23:57:01.735Z,59.58
2023-04-13T23:59:34.167Z,59.66
